River Kern, California
Current Conditions -  °F | °C
As of 4:56 AM on Saturday 25 Oct 2014 (Local Time) from KNID Reporting Station
Clear Clear  
Wind Chill: 65°   Ceiling: Unl
Heat Index: 65°   Visibility: 10mi
Dew Point: 34°   Wind: 12mph
Humidity: 32%   Direction: 160°SSE
Pressure: 30"   Gusts: NA
Location:  35.8452°N, 118.355°W
Report Text: KNID 251156Z AUTO 16010KT 10SM CLR 18/01 A3000 RMK AO2 SLP143 T01830011 10233 20172 56007 $
Loading
Personal Weather Stations






























Interactive Weather Map
Tropical Storm Tracking
New forecast layout! Learn more

10-Day Weather Forecast

Advertisements
Track Severe Weather on mobile